Time;durP1;ratioP1;P1;durP2;ratioP2;P2;SDS_P1;SDS_P2;PMS_P1;PMS_P2;Temp;Humidity;BMP_temperature;BMP_pressure;BME280_temperature;BME280_humidity;BME280_pressure;Samples;Min_cycle;Max_cycle;Signal;HPM_P1;HPM_P2
2021/12/20 00:00:55;;;;;;;73.33;32.07;;;4.30;92.00;;;;;;5015281;28;20429;-69
2021/12/20 00:03:21;;;;;;;90.70;31.47;;;4.30;91.80;;;;;;5015238;28;20032;-69
2021/12/20 00:05:46;;;;;;;74.37;33.87;;;4.30;91.70;;;;;;5015153;28;20113;-67
2021/12/20 00:08:12;;;;;;;78.87;31.83;;;4.20;91.90;;;;;;5014998;28;20097;-65
2021/12/20 00:10:38;;;;;;;80.80;31.30;;;4.20;92.10;;;;;;5015236;28;20049;-67
2021/12/20 00:13:04;;;;;;;73.87;31.87;;;4.20;91.90;;;;;;5015269;28;20022;-66
2021/12/20 00:15:30;;;;;;;94.87;31.70;;;4.30;91.70;;;;;;5014711;28;20059;-67
2021/12/20 00:17:55;;;;;;;74.83;32.23;;;4.20;91.70;;;;;;5015025;28;20037;-67
2021/12/20 00:20:21;;;;;;;100.77;29.53;;;4.20;91.80;;;;;;5015061;28;20044;-67
2021/12/20 00:22:47;;;;;;;78.50;31.30;;;4.10;91.80;;;;;;5014925;28;20471;-68
2021/12/20 00:25:14;;;;;;;83.60;30.70;;;4.00;91.80;;;;;;5014962;28;20034;-66
2021/12/20 00:27:39;;;;;;;65.57;30.43;;;4.10;91.60;;;;;;5014931;28;20026;-65
2021/12/20 00:30:07;;;;;;;64.53;29.77;;;4.10;91.60;;;;;;5015006;28;20038;-66
2021/12/20 00:32:33;;;;;;;72.17;31.10;;;4.00;91.70;;;;;;5014505;28;20415;-65
2021/12/20 00:34:59;;;;;;;70.43;30.83;;;4.00;91.80;;;;;;5014172;28;20053;-65
2021/12/20 00:40:21;;;;;;;75.27;31.70;;;4.00;92.00;;;;;;5014733;28;20442;-66
2021/12/20 00:42:55;;;;;;;65.50;30.07;;;3.90;92.20;;;;;;5014570;28;20034;-66
2021/12/20 00:45:25;;;;;;;65.00;28.47;;;3.80;92.40;;;;;;5014427;28;20546;-67
2021/12/20 00:47:50;;;;;;;64.17;28.13;;;3.70;92.50;;;;;;5014364;28;20064;-70
2021/12/20 00:50:18;;;;;;;75.77;29.63;;;3.60;92.60;;;;;;5014309;28;20120;-67
2021/12/20 00:52:44;;;;;;;71.00;29.43;;;3.50;92.70;;;;;;5014242;28;20026;-66
2021/12/20 00:55:12;;;;;;;69.37;28.60;;;3.50;93.00;;;;;;5014284;28;20077;-74
2021/12/20 00:57:38;;;;;;;64.33;27.27;;;3.60;93.00;;;;;;5014020;28;20029;-66
2021/12/20 01:00:06;;;;;;;71.03;28.50;;;3.60;92.70;;;;;;5014154;28;20037;-65
2021/12/20 01:02:32;;;;;;;62.37;27.23;;;3.60;92.50;;;;;;5013078;28;20434;-67
2021/12/20 01:04:59;;;;;;;62.63;28.90;;;3.60;92.50;;;;;;5013996;28;20030;-67
2021/12/20 01:07:24;;;;;;;62.13;27.70;;;3.60;92.50;;;;;;5014182;28;20485;-67
2021/12/20 01:09:51;;;;;;;58.57;26.60;;;3.60;92.40;;;;;;5014071;28;20030;-67
2021/12/20 01:12:20;;;;;;;65.57;29.20;;;3.70;92.40;;;;;;5013855;28;20045;-66
2021/12/20 01:14:46;;;;;;;65.93;29.20;;;3.60;92.50;;;;;;5013876;28;20544;-67
2021/12/20 01:17:12;;;;;;;70.53;28.90;;;3.50;92.60;;;;;;5013806;28;20025;-66
2021/12/20 01:19:39;;;;;;;58.43;27.60;;;3.60;92.50;;;;;;5013879;28;20068;-67
2021/12/20 01:22:05;;;;;;;71.17;28.73;;;3.60;92.40;;;;;;5013946;28;20421;-67
2021/12/20 01:24:32;;;;;;;66.33;28.50;;;3.60;92.50;;;;;;5013503;28;20037;-68
2021/12/20 01:26:58;;;;;;;70.07;30.13;;;3.50;92.60;;;;;;5013663;28;20030;-67
2021/12/20 01:29:24;;;;;;;71.47;28.63;;;3.40;92.90;;;;;;5013598;28;20034;-66
2021/12/20 01:31:50;;;;;;;74.13;29.30;;;3.40;93.00;;;;;;5013596;28;20022;-66
2021/12/20 01:34:16;;;;;;;68.60;26.87;;;3.50;92.90;;;;;;5013362;28;20092;-71
2021/12/20 01:36:42;;;;;;;65.33;26.23;;;3.50;92.70;;;;;;5013577;28;20054;-68
2021/12/20 01:39:08;;;;;;;52.80;24.53;;;3.60;92.60;;;;;;5013561;28;20030;-66
2021/12/20 01:41:41;;;;;;;56.13;26.03;;;3.50;92.30;;;;;;5013411;28;20390;-70
2021/12/20 01:44:08;;;;;;;50.83;25.20;;;3.50;92.20;;;;;;5013320;28;20462;-68
2021/12/20 01:46:34;;;;;;;45.30;22.73;;;3.40;92.10;;;;;;5013272;28;20037;-74
2021/12/20 01:49:01;;;;;;;49.83;23.73;;;3.40;92.30;;;;;;5013578;28;20030;-67
2021/12/20 01:54:03;;;;;;;66.80;24.93;;;3.40;92.30;;;;;;5012979;28;20037;-67
2021/12/20 01:56:30;;;;;;;56.97;26.27;;;3.30;92.40;;;;;;5013397;28;20463;-67
2021/12/20 01:59:04;;;;;;;53.93;24.57;;;3.30;92.80;;;;;;5011078;28;20026;-73
2021/12/20 02:01:31;;;;;;;49.90;23.27;;;3.30;92.60;;;;;;5010313;28;20033;-68
2021/12/20 02:04:00;;;;;;;48.23;22.93;;;3.30;92.30;;;;;;5010619;28;20022;-65
2021/12/20 02:06:32;;;;;;;50.23;23.67;;;3.40;92.00;;;;;;5012636;28;20034;-67
2021/12/20 02:09:01;;;;;;;55.72;21.98;;;3.30;91.90;;;;;;5013016;28;20371;-71
2021/12/20 02:11:28;;;;;;;60.33;23.67;;;3.30;91.80;;;;;;5013159;28;20029;-67
2021/12/20 02:13:54;;;;;;;61.93;25.57;;;3.20;92.20;;;;;;5012706;28;20049;-67
2021/12/20 02:16:21;;;;;;;63.00;25.30;;;3.20;92.60;;;;;;5012742;28;20033;-68
2021/12/20 02:18:48;;;;;;;74.63;26.07;;;3.20;92.70;;;;;;5013025;28;20022;-68
2021/12/20 02:21:14;;;;;;;72.27;25.70;;;3.20;92.70;;;;;;5012815;28;20032;-71
2021/12/20 02:23:39;;;;;;;68.53;25.33;;;3.20;92.70;;;;;;5013057;28;20026;-68
2021/12/20 02:26:06;;;;;;;52.53;23.20;;;3.20;92.60;;;;;;5012988;28;20022;-67
2021/12/20 02:28:38;;;;;;;46.30;23.03;;;3.20;92.70;;;;;;5012826;28;20029;-70
2021/12/20 02:36:59;;;;;;;72.40;24.02;;;3.20;92.40;;;;;;5013063;28;20057;-68
2021/12/20 02:39:25;;;;;;;72.68;22.67;;;3.10;92.40;;;;;;5012793;28;20182;-67
2021/12/20 02:41:51;;;;;;;57.03;23.00;;;3.10;92.50;;;;;;5012705;28;20094;-67
2021/12/20 02:44:19;;;;;;;90.83;24.50;;;3.20;92.40;;;;;;5012367;28;20029;-67
2021/12/20 02:47:15;;;;;;;78.17;23.90;;;3.20;92.30;;;;;;5012663;28;20022;-68
2021/12/20 02:49:33;;;;;;;59.33;23.43;;;3.10;92.60;;;;;;5011847;28;20467;-67
2021/12/20 02:52:03;;;;;;;64.03;24.30;;;3.00;92.90;;;;;;5012327;28;20030;-69
2021/12/20 02:54:28;;;;;;;64.70;25.67;;;3.00;92.80;;;;;;5012366;28;20109;-71
2021/12/20 02:56:54;;;;;;;84.77;25.20;;;3.00;93.00;;;;;;5012639;28;20100;-68
2021/12/20 02:59:20;;;;;;;67.97;24.00;;;2.90;93.10;;;;;;5012340;28;20021;-67
2021/12/20 03:01:58;;;;;;;54.40;23.17;;;3.00;93.00;;;;;;5012873;28;20037;-67
2021/12/20 03:04:25;;;;;;;49.20;22.23;;;3.00;92.70;;;;;;5012688;28;20053;-67
2021/12/20 03:07:03;;;;;;;55.03;23.70;;;3.00;92.60;;;;;;5012603;28;20026;-70
2021/12/20 03:09:33;;;;;;;72.33;23.23;;;2.90;92.80;;;;;;5012484;28;20056;-67
2021/12/20 03:12:01;;;;;;;67.60;24.60;;;2.90;92.90;;;;;;5012486;28;20033;-68
2021/12/20 03:14:33;;;;;;;91.50;25.53;;;2.90;93.10;;;;;;5012312;28;20034;-70
2021/12/20 03:16:59;;;;;;;82.22;24.40;;;2.90;93.10;;;;;;5012534;28;20076;-67
2021/12/20 03:19:26;;;;;;;144.70;24.30;;;2.90;92.90;;;;;;5012481;28;20481;-68
2021/12/20 03:21:53;;;;;;;109.63;26.00;;;3.00;92.80;;;;;;5012344;28;20018;-68
2021/12/20 03:24:18;;;;;;;87.40;22.97;;;2.80;92.80;;;;;;5012378;28;20069;-68
2021/12/20 03:26:45;;;;;;;108.03;24.90;;;2.80;93.00;;;;;;5016015;28;20030;-68
2021/12/20 03:29:11;;;;;;;79.80;22.80;;;2.80;93.10;;;;;;5015883;28;20426;-67
2021/12/20 03:31:36;;;;;;;84.03;23.57;;;2.80;93.20;;;;;;5015883;28;20056;-68
2021/12/20 03:34:03;;;;;;;65.90;25.43;;;2.90;93.00;;;;;;5015477;28;20463;-69
2021/12/20 03:36:29;;;;;;;149.13;25.67;;;2.90;92.90;;;;;;5015543;28;20367;-69
2021/12/20 03:38:55;;;;;;;99.63;25.50;;;2.90;93.10;;;;;;4998076;28;20025;-68
2021/12/20 03:41:21;;;;;;;160.00;24.40;;;2.80;93.20;;;;;;5015723;28;20026;-67
2021/12/20 03:43:47;;;;;;;128.43;24.87;;;2.80;93.20;;;;;;5015612;28;20049;-66
2021/12/20 03:46:12;;;;;;;102.77;24.80;;;2.80;93.20;;;;;;5015529;28;20663;-67
2021/12/20 03:48:38;;;;;;;83.37;24.57;;;2.80;93.30;;;;;;5015523;28;20050;-67
2021/12/20 03:51:05;;;;;;;95.23;23.40;;;2.80;93.30;;;;;;5015426;28;20026;-67
2021/12/20 03:53:33;;;;;;;115.27;24.07;;;2.80;93.40;;;;;;5015220;28;20483;-69
2021/12/20 03:56:00;;;;;;;98.33;22.97;;;2.80;93.00;;;;;;5015128;28;20451;-68
2021/12/20 03:58:27;;;;;;;65.00;22.37;;;2.80;92.80;;;;;;5015429;28;20153;-67
2021/12/20 04:00:58;;;;;;;176.33;24.17;;;2.70;92.80;;;;;;4997785;28;20030;-67
2021/12/20 04:03:25;;;;;;;121.67;23.53;;;2.70;93.00;;;;;;5015139;28;20026;-67
2021/12/20 04:05:51;;;;;;;156.90;23.13;;;2.60;93.20;;;;;;5015082;28;20014;-67
2021/12/20 04:08:17;;;;;;;78.10;21.97;;;2.60;93.30;;;;;;5015287;28;20109;-67
2021/12/20 04:10:43;;;;;;;165.97;22.03;;;2.50;93.30;;;;;;5015348;28;20053;-67
2021/12/20 04:13:09;;;;;;;138.70;22.33;;;2.50;93.30;;;;;;5015035;28;20037;-67
2021/12/20 04:15:36;;;;;;;136.73;23.23;;;2.60;93.30;;;;;;5014778;28;20041;-67
2021/12/20 04:18:03;;;;;;;150.50;23.30;;;2.60;93.30;;;;;;5015222;28;20030;-68
2021/12/20 04:20:28;;;;;;;114.90;23.20;;;2.50;93.40;;;;;;5014986;28;20025;-67
2021/12/20 04:22:54;;;;;;;153.27;22.10;;;2.50;93.50;;;;;;5015213;28;20467;-70
2021/12/20 04:25:20;;;;;;;233.17;23.10;;;2.60;93.50;;;;;;5015272;28;20101;-67
2021/12/20 04:27:45;;;;;;;114.63;20.13;;;2.70;93.20;;;;;;5014866;28;20030;-66
2021/12/20 04:30:12;;;;;;;80.83;18.50;;;2.70;92.90;;;;;;5014735;28;20030;-66
2021/12/20 04:32:39;;;;;;;100.77;20.20;;;2.70;92.70;;;;;;5014689;28;20025;-67
2021/12/20 04:35:05;;;;;;;49.20;17.60;;;2.60;92.80;;;;;;5014392;28;20058;-67
2021/12/20 04:37:31;;;;;;;65.87;17.10;;;2.60;92.80;;;;;;5013698;28;20470;-67
2021/12/20 04:39:57;;;;;;;118.60;19.30;;;2.60;92.60;;;;;;5014617;28;20036;-67
2021/12/20 04:42:23;;;;;;;81.57;18.37;;;2.60;92.70;;;;;;5014707;28;20022;-67
2021/12/20 04:44:49;;;;;;;117.43;18.30;;;2.60;92.80;;;;;;5014637;28;20051;-67
2021/12/20 04:47:14;;;;;;;255.67;20.03;;;2.60;92.60;;;;;;5014433;28;20026;-75
2021/12/20 04:49:40;;;;;;;157.77;18.10;;;2.60;92.40;;;;;;5014494;28;20029;-68
2021/12/20 04:52:06;;;;;;;141.37;18.97;;;2.50;92.40;;;;;;5014394;28;20026;-67
2021/12/20 04:54:31;;;;;;;107.20;19.40;;;2.40;92.80;;;;;;5014280;28;20069;-68
2021/12/20 04:56:57;;;;;;;233.10;20.30;;;2.40;92.70;;;;;;5014522;28;20101;-67
2021/12/20 04:59:23;;;;;;;58.03;17.17;;;2.40;92.90;;;;;;5014367;28;20026;-68
2021/12/20 05:01:48;;;;;;;210.83;18.40;;;2.40;93.10;;;;;;5014191;28;20022;-74
2021/12/20 05:04:14;;;;;;;107.43;18.40;;;2.30;93.00;;;;;;5014217;28;20029;-68
2021/12/20 05:06:40;;;;;;;119.60;16.57;;;2.30;93.00;;;;;;5014202;28;20054;-71
2021/12/20 05:09:06;;;;;;;146.47;17.97;;;2.30;92.80;;;;;;5014576;28;20037;-69
2021/12/20 05:11:34;;;;;;;58.03;18.03;;;2.40;92.60;;;;;;5014271;28;20018;-68
2021/12/20 05:14:00;;;;;;;88.60;16.87;;;2.30;92.80;;;;;;5014053;28;20544;-66
2021/12/20 05:16:27;;;;;;;88.23;16.53;;;2.30;93.00;;;;;;5013959;28;20467;-67
2021/12/20 05:18:53;;;;;;;143.23;17.80;;;2.40;92.70;;;;;;5014235;28;20394;-68
2021/12/20 05:21:18;;;;;;;92.53;17.63;;;2.40;92.50;;;;;;5013988;28;20026;-67
2021/12/20 05:23:44;;;;;;;126.33;18.23;;;2.30;92.40;;;;;;5013822;28;20390;-68
2021/12/20 05:26:10;;;;;;;75.53;15.90;;;2.30;92.60;;;;;;5014015;28;20014;-67
2021/12/20 05:28:35;;;;;;;209.37;18.00;;;2.20;92.80;;;;;;5013970;28;20026;-67
2021/12/20 05:31:01;;;;;;;170.57;16.90;;;2.20;92.80;;;;;;5014080;28;20022;-68
2021/12/20 05:33:27;;;;;;;104.03;17.03;;;2.10;92.80;;;;;;5013638;28;20069;-68
2021/12/20 05:35:53;;;;;;;89.03;17.13;;;2.00;93.00;;;;;;5013504;28;20032;-68
2021/12/20 05:38:19;;;;;;;120.30;18.67;;;2.00;93.30;;;;;;5013632;28;20486;-69
2021/12/20 05:40:46;;;;;;;85.87;18.23;;;2.00;93.50;;;;;;5013930;28;20046;-66
2021/12/20 05:43:12;;;;;;;81.63;18.03;;;2.00;93.20;;;;;;4996061;28;20426;-68
2021/12/20 05:45:38;;;;;;;119.07;18.83;;;2.00;93.30;;;;;;5013638;28;20030;-70
2021/12/20 05:48:04;;;;;;;114.90;16.97;;;1.90;93.20;;;;;;5013230;28;20076;-68
2021/12/20 05:50:30;;;;;;;121.97;19.40;;;2.00;93.40;;;;;;5013605;28;20057;-67
2021/12/20 05:52:56;;;;;;;156.20;19.47;;;2.00;93.10;;;;;;5013643;28;20068;-70
2021/12/20 05:55:21;;;;;;;152.97;20.13;;;1.90;92.80;;;;;;5013516;28;20402;-67
2021/12/20 05:57:47;;;;;;;78.30;18.37;;;1.80;93.10;;;;;;5013517;28;20030;-67
2021/12/20 06:00:18;;;;;;;132.00;19.07;;;1.70;93.40;;;;;;5013415;28;20378;-68
2021/12/20 06:02:46;;;;;;;97.37;18.03;;;1.60;93.40;;;;;;4996213;28;20026;-76
2021/12/20 06:05:11;;;;;;;124.43;17.30;;;1.60;93.50;;;;;;5012841;28;20471;-70
2021/12/20 06:07:40;;;;;;;99.53;17.97;;;1.60;93.50;;;;;;5012841;28;20033;-71
2021/12/20 06:10:11;;;;;;;77.73;18.30;;;1.50;93.40;;;;;;5011321;28;20422;-68
2021/12/20 06:12:39;;;;;;;164.83;19.87;;;1.40;93.70;;;;;;5010275;28;20022;-67
2021/12/20 06:15:05;;;;;;;227.40;20.27;;;1.30;93.10;;;;;;5010509;28;20192;-67
2021/12/20 06:17:31;;;;;;;166.63;20.17;;;1.30;93.30;;;;;;5013280;28;20033;-70
2021/12/20 06:19:56;;;;;;;83.70;17.80;;;1.20;93.40;;;;;;5012910;28;20030;-68
2021/12/20 06:22:22;;;;;;;120.33;17.50;;;1.10;93.60;;;;;;5012853;28;20076;-67
2021/12/20 06:24:48;;;;;;;70.70;15.10;;;1.10;93.60;;;;;;5012664;28;20463;-67
2021/12/20 06:27:13;;;;;;;119.70;17.23;;;1.00;93.50;;;;;;5012552;28;20033;-67
2021/12/20 06:29:39;;;;;;;72.07;15.10;;;1.00;93.20;;;;;;5012860;28;20490;-68
2021/12/20 06:32:05;;;;;;;155.03;15.67;;;1.00;93.20;;;;;;5012637;28;20034;-68
2021/12/20 06:34:31;;;;;;;137.53;15.63;;;0.90;92.90;;;;;;5012241;28;20092;-67
2021/12/20 06:36:57;;;;;;;131.07;13.13;;;0.80;92.70;;;;;;5012802;28;20034;-71
2021/12/20 06:39:23;;;;;;;39.37;12.87;;;0.70;92.90;;;;;;5012640;28;20091;-69
2021/12/20 06:41:50;;;;;;;71.63;12.53;;;0.60;93.20;;;;;;5012825;28;20040;-69
2021/12/20 06:44:16;;;;;;;48.90;11.53;;;0.60;93.00;;;;;;5012613;28;20076;-67
2021/12/20 06:46:43;;;;;;;69.67;12.60;;;0.50;92.60;;;;;;5013087;28;20022;-70
2021/12/20 06:49:10;;;;;;;44.90;13.50;;;0.50;92.80;;;;;;5012718;28;20018;-67
2021/12/20 06:51:40;;;;;;;29.73;12.17;;;0.50;93.10;;;;;;5012612;28;20390;-68
2021/12/20 06:54:06;;;;;;;21.43;10.40;;;0.40;92.80;;;;;;5012560;28;20026;-69
2021/12/20 06:56:32;;;;;;;17.77;11.10;;;0.40;92.60;;;;;;5012331;28;20129;-67
2021/12/20 06:58:57;;;;;;;18.83;10.97;;;0.40;92.50;;;;;;5010128;28;20882;-67
2021/12/20 07:01:23;;;;;;;27.87;10.97;;;0.40;92.40;;;;;;5013606;28;20053;-68
2021/12/20 07:03:49;;;;;;;15.63;10.17;;;0.40;92.40;;;;;;5015745;28;20022;-67
2021/12/20 07:06:14;;;;;;;19.20;11.83;;;0.30;92.30;;;;;;5016556;28;20105;-68
2021/12/20 07:08:40;;;;;;;15.43;9.73;;;0.30;92.10;;;;;;5016191;28;20026;-68
2021/12/20 07:11:08;;;;;;;13.10;9.60;;;0.30;92.00;;;;;;5015953;28;20527;-68
2021/12/20 07:13:33;;;;;;;15.40;9.93;;;0.30;92.10;;;;;;5016092;28;20071;-67
2021/12/20 07:15:59;;;;;;;19.93;11.60;;;0.40;92.30;;;;;;5016023;28;20394;-68
2021/12/20 07:18:25;;;;;;;20.23;12.93;;;0.40;92.00;;;;;;5014438;28;20033;-68
2021/12/20 07:20:50;;;;;;;23.90;14.63;;;0.40;92.00;;;;;;5016205;28;20069;-67
2021/12/20 07:23:16;;;;;;;18.70;11.43;;;0.40;92.50;;;;;;4998347;28;20018;-69
2021/12/20 07:25:42;;;;;;;21.17;12.50;;;0.40;92.30;;;;;;5004750;28;20095;-67
2021/12/20 07:28:07;;;;;;;22.03;12.83;;;0.40;92.30;;;;;;4996343;28;20497;-67
2021/12/20 07:30:33;;;;;;;23.63;14.13;;;0.40;92.20;;;;;;4995912;28;20101;-67
2021/12/20 07:32:59;;;;;;;26.63;12.87;;;0.50;92.50;;;;;;4995817;28;20073;-67
2021/12/20 07:35:25;;;;;;;21.07;12.53;;;0.40;92.30;;;;;;4995282;28;20046;-68
2021/12/20 07:37:54;;;;;;;20.37;12.37;;;0.40;91.90;;;;;;4995715;28;20026;-69
2021/12/20 07:40:20;;;;;;;17.83;10.83;;;0.40;92.30;;;;;;4995543;28;20374;-68
2021/12/20 07:42:45;;;;;;;20.07;11.57;;;0.40;91.90;;;;;;4995724;28;20394;-67
2021/12/20 07:45:11;;;;;;;17.57;11.50;;;0.50;92.20;;;;;;4995963;28;20030;-67
2021/12/20 07:47:37;;;;;;;17.47;11.40;;;0.50;92.00;;;;;;4969270;28;20069;-67
2021/12/20 07:50:04;;;;;;;19.90;11.20;;;0.60;91.90;;;;;;4995963;28;20495;-67
2021/12/20 07:52:32;;;;;;;16.67;11.17;;;0.50;92.10;;;;;;4995660;28;20121;-67
2021/12/20 07:54:59;;;;;;;19.40;11.90;;;0.50;92.30;;;;;;4996044;28;20037;-68
2021/12/20 07:57:25;;;;;;;16.83;10.33;;;0.70;92.50;;;;;;4978437;28;20022;-70
2021/12/20 07:59:50;;;;;;;16.63;10.40;;;0.80;92.10;;;;;;4994046;28;20041;-68
2021/12/20 08:02:16;;;;;;;20.30;11.73;;;0.90;92.10;;;;;;4993320;28;20054;-67
2021/12/20 08:04:47;;;;;;;18.13;11.03;;;1.00;92.60;;;;;;4992272;28;20117;-68
2021/12/20 08:07:13;;;;;;;20.73;11.50;;;1.10;92.10;;;;;;4995468;28;20041;-68
2021/12/20 08:09:39;;;;;;;16.43;10.93;;;1.30;92.00;;;;;;4995619;28;20021;-69
2021/12/20 08:12:06;;;;;;;17.47;10.67;;;1.40;91.90;;;;;;4995595;28;20030;-68
2021/12/20 08:14:31;;;;;;;16.43;10.73;;;1.50;91.80;;;;;;4995376;28;20038;-70
2021/12/20 08:16:57;;;;;;;15.63;10.27;;;1.70;92.00;;;;;;4996040;28;20033;-68
2021/12/20 08:19:23;;;;;;;14.67;9.90;;;1.80;92.00;;;;;;4995570;28;20027;-69
2021/12/20 08:21:48;;;;;;;15.47;10.83;;;1.80;91.30;;;;;;4995313;28;20022;-68
2021/12/20 08:24:14;;;;;;;14.77;9.97;;;1.80;91.60;;;;;;4995540;28;20113;-71
2021/12/20 08:26:39;;;;;;;17.33;11.30;;;1.90;91.70;;;;;;4995652;28;20077;-68
2021/12/20 08:29:05;;;;;;;16.50;10.67;;;2.00;91.50;;;;;;4995494;28;20041;-68
2021/12/20 08:31:31;;;;;;;16.90;11.23;;;1.90;91.60;;;;;;4995664;28;20030;-68
2021/12/20 08:33:56;;;;;;;17.77;11.33;;;1.90;91.70;;;;;;4995027;28;20061;-68
2021/12/20 08:36:22;;;;;;;17.77;11.33;;;2.10;92.10;;;;;;4974885;28;20390;-69
2021/12/20 08:38:48;;;;;;;17.70;11.40;;;2.10;92.10;;;;;;4992375;28;20030;-69
2021/12/20 08:41:14;;;;;;;16.20;10.27;;;2.30;92.20;;;;;;4994500;28;20041;-68
2021/12/20 08:43:40;;;;;;;19.37;11.37;;;2.40;92.00;;;;;;4994608;28;20026;-69
2021/12/20 08:46:06;;;;;;;18.10;12.00;;;2.50;91.70;;;;;;4995018;28;20018;-69
2021/12/20 08:48:33;;;;;;;16.27;11.03;;;2.60;91.60;;;;;;4995049;28;20030;-69
2021/12/20 08:51:01;;;;;;;15.03;11.23;;;2.80;91.90;;;;;;4995343;28;20030;-69
2021/12/20 08:53:27;;;;;;;15.07;10.70;;;2.90;91.50;;;;;;4995255;28;20022;-68
2021/12/20 08:55:53;;;;;;;16.63;11.57;;;3.10;91.60;;;;;;4994458;28;20074;-69
2021/12/20 08:58:18;;;;;;;14.47;10.43;;;3.20;91.40;;;;;;4995249;28;20027;-69
2021/12/20 09:00:45;;;;;;;15.77;11.10;;;3.30;91.30;;;;;;4995197;28;20037;-69
2021/12/20 09:03:11;;;;;;;14.87;10.10;;;3.50;91.00;;;;;;4995337;28;20026;-69
2021/12/20 09:05:36;;;;;;;17.40;10.70;;;3.60;90.60;;;;;;4995042;28;20485;-68
2021/12/20 09:08:04;;;;;;;15.30;10.43;;;3.80;90.10;;;;;;4995086;28;20096;-69
2021/12/20 09:10:31;;;;;;;16.33;9.93;;;4.00;90.00;;;;;;4994846;28;20375;-69
2021/12/20 09:12:57;;;;;;;12.47;9.53;;;4.20;89.40;;;;;;4994818;28;20069;-70
2021/12/20 09:15:23;;;;;;;16.00;10.00;;;4.40;88.30;;;;;;4994754;28;20073;-69
2021/12/20 09:17:52;;;;;;;15.80;10.00;;;4.50;87.40;;;;;;4994709;28;20037;-69
2021/12/20 09:20:21;;;;;;;15.27;10.70;;;4.70;87.00;;;;;;4994736;28;20034;-69
2021/12/20 09:22:52;;;;;;;16.53;11.27;;;4.90;87.30;;;;;;4993900;28;20018;-69
2021/12/20 09:25:21;;;;;;;13.77;10.00;;;5.00;86.90;;;;;;4994649;28;20364;-70
2021/12/20 09:27:48;;;;;;;13.10;9.60;;;5.20;86.70;;;;;;4994587;28;20022;-69
2021/12/20 09:30:15;;;;;;;17.17;10.03;;;5.30;84.40;;;;;;4994347;28;20026;-70
2021/12/20 09:32:40;;;;;;;13.43;8.70;;;5.40;83.50;;;;;;4993819;28;20022;-71
2021/12/20 09:35:07;;;;;;;11.30;7.70;;;5.60;82.80;;;;;;4993367;28;20054;-69
2021/12/20 09:37:33;;;;;;;11.63;7.60;;;5.70;80.00;;;;;;4991732;28;20490;-73
2021/12/20 09:40:00;;;;;;;12.33;8.47;;;5.80;79.80;;;;;;4991463;28;20065;-67
2021/12/20 09:42:26;;;;;;;10.67;7.47;;;5.90;79.70;;;;;;4991658;28;20023;-67
2021/12/20 09:44:54;;;;;;;7.87;5.33;;;6.10;79.30;;;;;;4993876;28;20029;-68
2021/12/20 09:47:20;;;;;;;11.27;5.67;;;6.20;77.20;;;;;;4994149;28;20027;-68
2021/12/20 09:49:46;;;;;;;8.10;4.90;;;6.30;76.50;;;;;;4993834;28;20026;-68
2021/12/20 09:52:12;;;;;;;7.53;5.00;;;6.40;75.80;;;;;;4993546;28;20033;-67
2021/12/20 09:54:39;;;;;;;7.13;4.50;;;6.50;74.20;;;;;;4993981;28;20041;-68
2021/12/20 09:57:08;;;;;;;5.60;3.80;;;6.70;72.60;;;;;;4993959;28;20022;-67
2021/12/20 09:59:36;;;;;;;11.63;4.27;;;6.80;72.30;;;;;;4994051;28;20026;-67
2021/12/20 10:02:08;;;;;;;6.60;4.20;;;6.90;71.80;;;;;;4993843;28;20030;-69
2021/12/20 10:04:34;;;;;;;5.40;3.90;;;7.00;70.70;;;;;;4993608;28;20054;-68
2021/12/20 10:07:01;;;;;;;6.33;4.30;;;7.10;70.00;;;;;;4993817;28;20062;-70
2021/12/20 10:09:32;;;;;;;6.93;3.90;;;7.20;69.70;;;;;;4993626;28;20097;-69
2021/12/20 10:12:26;;;;;;;8.60;4.40;;;7.30;69.10;;;;;;4992359;28;20105;-68
2021/12/20 10:14:56;;;;;;;6.17;4.07;;;7.50;67.90;;;;;;4991571;28;20395;-68
2021/12/20 10:17:22;;;;;;;6.77;4.30;;;7.50;66.90;;;;;;4992944;28;20041;-68
2021/12/20 10:19:49;;;;;;;5.07;3.40;;;7.70;66.70;;;;;;4993377;28;20521;-69
2021/12/20 10:22:28;;;;;;;5.53;4.03;;;7.70;65.00;;;;;;4993148;28;20106;-68
2021/12/20 10:24:57;;;;;;;8.53;4.10;;;7.90;63.70;;;;;;4993598;28;20106;-68
2021/12/20 10:27:35;;;;;;;5.30;3.60;;;7.90;64.00;;;;;;4993552;28;20026;-68
2021/12/20 10:30:23;;;;;;;6.57;3.10;;;8.10;63.10;;;;;;4975919;28;20379;-69
2021/12/20 10:32:49;;;;;;;6.53;3.87;;;8.20;63.30;;;;;;4993171;28;20022;-68
2021/12/20 10:35:28;;;;;;;6.57;3.40;;;8.30;62.70;;;;;;4995691;28;20057;-68
2021/12/20 10:37:58;;;;;;;9.20;3.33;;;8.30;61.60;;;;;;4997021;28;20048;-68
2021/12/20 10:40:24;;;;;;;7.43;3.17;;;8.40;61.60;;;;;;4997087;28;20022;-68
2021/12/20 10:42:51;;;;;;;5.07;3.20;;;8.50;61.70;;;;;;4996557;28;20364;-69
2021/12/20 10:45:20;;;;;;;6.00;3.40;;;8.60;60.20;;;;;;4997101;28;20084;-70
2021/12/20 10:47:47;;;;;;;6.57;3.00;;;8.70;60.30;;;;;;4997595;28;20109;-69
2021/12/20 10:50:20;;;;;;;6.40;3.50;;;8.90;58.80;;;;;;4997114;28;20383;-69
2021/12/20 10:52:45;;;;;;;7.70;3.38;;;8.90;57.50;;;;;;4979605;28;20398;-69
2021/12/20 10:55:11;;;;;;;5.97;2.90;;;9.00;58.20;;;;;;4996914;28;20034;-69
2021/12/20 10:57:37;;;;;;;4.33;3.10;;;9.10;59.10;;;;;;4997045;28;20026;-70
2021/12/20 11:00:17;;;;;;;3.53;2.70;;;9.20;57.00;;;;;;4997477;28;20042;-69
2021/12/20 11:03:24;;;;;;;7.10;3.10;;;9.20;56.80;;;;;;4997106;28;20360;-69
2021/12/20 11:11:20;;;;;;;4.13;2.60;;;9.50;55.30;;;;;;4996916;28;20128;-69
2021/12/20 11:13:46;;;;;;;7.67;3.33;;;9.60;55.10;;;;;;4996776;28;20082;-70
2021/12/20 11:16:32;;;;;;;5.97;2.90;;;9.70;55.50;;;;;;4996901;28;20501;-69
2021/12/20 11:19:14;;;;;;;4.23;2.57;;;9.80;54.80;;;;;;4996948;28;20105;-70
2021/12/20 11:21:52;;;;;;;5.82;2.60;;;9.80;54.10;;;;;;4997012;28;20395;-69
2021/12/20 11:24:23;;;;;;;5.53;2.57;;;9.90;54.90;;;;;;4997039;28;20396;-70
2021/12/20 11:26:50;;;;;;;5.13;2.67;;;10.00;52.70;;;;;;4996746;28;20031;-70
2021/12/20 11:29:16;;;;;;;7.37;2.57;;;10.10;53.20;;;;;;4996751;28;20030;-69
2021/12/20 11:31:44;;;;;;;8.63;2.93;;;10.10;52.80;;;;;;4996764;28;20027;-69
2021/12/20 11:34:09;;;;;;;6.60;2.73;;;10.20;53.20;;;;;;4996149;28;20053;-69
2021/12/20 11:36:35;;;;;;;3.60;2.47;;;10.30;50.70;;;;;;4996758;28;20034;-69
2021/12/20 11:39:03;;;;;;;4.10;2.40;;;10.50;50.40;;;;;;4996634;28;20495;-69
2021/12/20 11:41:30;;;;;;;3.83;2.70;;;10.50;48.80;;;;;;4996426;28;20057;-70
2021/12/20 11:43:57;;;;;;;3.72;2.53;;;10.60;49.10;;;;;;4996280;28;20036;-70
2021/12/20 11:46:28;;;;;;;4.13;2.30;;;10.70;48.60;;;;;;4995824;28;20034;-69
2021/12/20 11:48:55;;;;;;;4.97;2.40;;;10.70;48.70;;;;;;4996438;28;20042;-71
2021/12/20 11:51:21;;;;;;;3.73;2.50;;;10.70;49.80;;;;;;4996206;28;20023;-68
2021/12/20 11:53:46;;;;;;;5.47;2.40;;;10.70;50.30;;;;;;4996257;28;20034;-69
2021/12/20 11:56:12;;;;;;;5.43;2.40;;;10.80;50.80;;;;;;4996139;28;20038;-71
2021/12/20 11:58:45;;;;;;;11.93;2.90;;;10.80;48.50;;;;;;4996166;28;20054;-69
2021/12/20 12:01:18;;;;;;;6.18;2.85;;;10.80;48.50;;;;;;4979086;28;20034;-69
2021/12/20 12:03:56;;;;;;;5.57;2.50;;;10.80;49.80;;;;;;4995866;28;20395;-69
2021/12/20 12:06:30;;;;;;;12.33;2.70;;;10.80;49.30;;;;;;4996035;28;20033;-68
2021/12/20 12:09:00;;;;;;;4.30;2.57;;;10.90;47.40;;;;;;4995983;28;20061;-71
2021/12/20 12:11:30;;;;;;;8.10;2.80;;;10.90;46.70;;;;;;4996137;28;20101;-69
2021/12/20 12:16:57;;;;;;;12.50;2.67;;;11.00;49.00;;;;;;4995960;28;20038;-70
2021/12/20 12:19:38;;;;;;;5.13;2.40;;;11.00;48.00;;;;;;4995836;28;20031;-69
2021/12/20 12:22:23;;;;;;;3.50;2.13;;;11.00;48.60;;;;;;4995882;28;20026;-70
2021/12/20 12:24:50;;;;;;;3.53;2.43;;;11.00;48.30;;;;;;4995658;28;20554;-69
2021/12/20 12:27:22;;;;;;;5.20;2.45;;;11.00;48.60;;;;;;4995495;28;20431;-68
2021/12/20 12:30:10;;;;;;;3.53;2.43;;;11.10;45.40;;;;;;4995778;28;20030;-71
2021/12/20 12:32:36;;;;;;;3.10;2.03;;;11.00;46.90;;;;;;4995345;28;20101;-71
2021/12/20 12:35:03;;;;;;;3.45;2.25;;;11.00;46.30;;;;;;4995212;28;20146;-70
2021/12/20 12:37:34;;;;;;;5.82;3.03;;;11.00;45.10;;;;;;4995427;28;20110;-70
2021/12/20 12:40:25;;;;;;;3.03;2.03;;;11.00;44.90;;;;;;4995220;28;20549;-68
2021/12/20 12:42:56;;;;;;;3.70;2.00;;;10.90;46.10;;;;;;4995222;28;20022;-68
2021/12/20 12:46:00;;;;;;;3.70;2.40;;;10.90;43.30;;;;;;4995277;28;20029;-69
2021/12/20 12:48:38;;;;;;;3.30;2.37;;;11.00;43.90;;;;;;4916216;29;20123;-69
2021/12/20 12:51:24;;;;;;;5.53;2.03;;;10.90;43.50;;;;;;4916052;29;20036;-69
2021/12/20 12:53:53;;;;;;;3.63;2.10;;;10.80;45.10;;;;;;4969379;28;20490;-68
2021/12/20 12:56:27;;;;;;;3.87;2.17;;;10.90;47.20;;;;;;4995030;28;20043;-69
2021/12/20 12:59:11;;;;;;;3.10;2.07;;;10.80;46.00;;;;;;4994463;28;20030;-68
2021/12/20 13:01:39;;;;;;;5.47;2.47;;;10.80;45.70;;;;;;4995148;28;20124;-69